createdAt,value
2022-09-01T00:04:33.552Z,1017.85
2022-09-01T00:09:40.710Z,1017.84
2022-09-01T00:14:47.873Z,1017.83
2022-09-01T00:19:55.099Z,1017.78
2022-09-01T00:25:02.366Z,1017.76
2022-09-01T00:30:09.558Z,1017.83
2022-09-01T00:35:16.754Z,1017.82
2022-09-01T00:40:24.051Z,1017.82
2022-09-01T00:45:31.235Z,1017.76
2022-09-01T00:50:38.434Z,1017.74
2022-09-01T00:55:45.595Z,1017.75
2022-09-01T01:00:52.776Z,1017.75
2022-09-01T01:05:59.965Z,1017.74
2022-09-01T01:11:07.221Z,1017.71
2022-09-01T01:16:14.533Z,1017.66
2022-09-01T01:21:21.736Z,1017.61
2022-09-01T01:26:28.919Z,1017.55
2022-09-01T01:31:36.218Z,1017.57
2022-09-01T01:36:43.383Z,1017.51
2022-09-01T01:41:50.546Z,1017.60
2022-09-01T01:46:57.735Z,1017.60
2022-09-01T01:52:04.951Z,1017.59
2022-09-01T01:57:12.095Z,1017.57
2022-09-01T02:02:19.347Z,1017.62
2022-09-01T02:07:26.481Z,1017.70
2022-09-01T02:12:33.679Z,1017.75
2022-09-01T02:17:40.842Z,1017.72
2022-09-01T02:22:48.029Z,1017.75
2022-09-01T02:27:55.229Z,1017.74
2022-09-01T02:33:02.471Z,1017.70
2022-09-01T02:38:09.682Z,1017.69
2022-09-01T02:43:16.861Z,1017.67
2022-09-01T02:48:24.058Z,1017.63
2022-09-01T02:53:31.853Z,1017.66
2022-09-01T02:58:39.060Z,1017.61
2022-09-01T03:03:46.321Z,1017.61
2022-09-01T03:08:53.494Z,1017.54
2022-09-01T03:14:00.689Z,1017.53
2022-09-01T03:19:07.880Z,1017.47
2022-09-01T03:24:15.062Z,1017.46
2022-09-01T03:29:22.232Z,1017.45
2022-09-01T03:34:29.414Z,1017.36
2022-09-01T03:39:36.606Z,1017.32
2022-09-01T03:44:43.799Z,1017.33
2022-09-01T03:49:50.978Z,1017.32
2022-09-01T03:54:58.216Z,1017.34
2022-09-01T04:00:05.452Z,1017.32
2022-09-01T04:05:12.695Z,1017.33
2022-09-01T04:10:19.922Z,1017.35
2022-09-01T04:15:27.103Z,1017.32
2022-09-01T04:20:34.292Z,1017.34
2022-09-01T04:25:41.474Z,1017.31
2022-09-01T04:30:48.661Z,1017.31
2022-09-01T04:35:55.858Z,1017.28
2022-09-01T04:41:03.027Z,1017.32
2022-09-01T04:46:10.246Z,1017.29
2022-09-01T04:51:17.367Z,1017.31
2022-09-01T04:56:24.584Z,1017.31
2022-09-01T05:01:31.891Z,1017.32
2022-09-01T05:06:39.060Z,1017.35
2022-09-01T05:11:46.248Z,1017.37
2022-09-01T05:16:53.382Z,1017.40
2022-09-01T05:22:00.615Z,1017.42
2022-09-01T05:27:07.788Z,1017.43
2022-09-01T05:32:15.008Z,1017.44
2022-09-01T05:37:22.161Z,1017.47
2022-09-01T05:42:29.386Z,1017.41
2022-09-01T05:47:36.632Z,1017.43
2022-09-01T05:52:43.816Z,1017.40
2022-09-01T05:57:51.007Z,1017.41
2022-09-01T06:02:58.368Z,1017.47
2022-09-01T06:08:05.379Z,1017.46
2022-09-01T06:13:12.616Z,1017.45
2022-09-01T06:18:19.741Z,1017.45
2022-09-01T06:23:26.965Z,1017.44
2022-09-01T06:28:34.239Z,1017.47
2022-09-01T06:33:41.419Z,1017.46
2022-09-01T06:38:48.606Z,1017.45
2022-09-01T06:43:55.880Z,1017.42
2022-09-01T06:49:03.168Z,1017.44
2022-09-01T06:54:14.107Z,1017.50
2022-09-01T06:59:17.651Z,1017.56
2022-09-01T07:04:25.335Z,1017.52
2022-09-01T07:09:48.090Z,1017.56
2022-09-01T07:19:49.751Z,1017.58
2022-09-01T07:25:11.978Z,1017.60
2022-09-01T07:30:01.146Z,1017.63
2022-09-01T07:35:08.422Z,1017.69
2022-09-01T07:45:26.712Z,1017.76
2022-09-01T07:55:37.283Z,1017.82
2022-09-01T08:00:44.459Z,1017.88
2022-09-01T08:05:51.635Z,1017.89
2022-09-01T08:11:05.586Z,1017.88
2022-09-01T08:16:07.463Z,1017.93
2022-09-01T08:21:13.196Z,1017.88
2022-09-01T08:26:20.379Z,1017.95
2022-09-01T08:31:30.749Z,1018.01
2022-09-01T08:36:35.574Z,1018.00
2022-09-01T08:41:46.779Z,1018.03
2022-09-01T08:46:49.159Z,1018.05
2022-09-01T08:51:56.286Z,1018.04
2022-09-01T08:57:03.493Z,1018.03
2022-09-01T09:02:10.671Z,1018.04
2022-09-01T09:07:17.807Z,1018.04
2022-09-01T09:12:25.046Z,1017.97
2022-09-01T09:17:32.248Z,1017.98
2022-09-01T09:22:39.413Z,1017.92
2022-09-01T09:27:46.619Z,1017.94
2022-09-01T09:38:00.981Z,1017.86
2022-09-01T09:43:08.248Z,1017.93
2022-09-01T09:48:15.460Z,1017.89
2022-09-01T09:53:23.350Z,1017.85
2022-09-01T09:58:30.513Z,1017.78
2022-09-01T10:03:37.732Z,1017.78
2022-09-01T10:08:44.869Z,1017.64
2022-09-01T10:13:52.074Z,1017.68
2022-09-01T10:18:59.247Z,1017.71
2022-09-01T10:24:25.915Z,1017.70
2022-09-01T10:29:15.700Z,1017.66
2022-09-01T10:34:20.789Z,1017.64
2022-09-01T10:39:31.116Z,1017.61
2022-09-01T10:44:35.893Z,1017.56
2022-09-01T10:49:46.404Z,1017.56
2022-09-01T10:54:51.612Z,1017.54
2022-09-01T10:59:57.251Z,1017.54
2022-09-01T11:05:04.014Z,1017.54
2022-09-01T11:10:11.973Z,1017.52
2022-09-01T11:15:18.283Z,1017.48
2022-09-01T11:20:25.526Z,1017.42
2022-09-01T11:25:40.302Z,1017.38
2022-09-01T11:30:39.935Z,1017.33
2022-09-01T11:35:47.124Z,1017.27
2022-09-01T11:40:54.424Z,1017.25
2022-09-01T11:46:01.551Z,1017.25
2022-09-01T11:51:08.705Z,1017.22
2022-09-01T11:56:15.873Z,1017.19
2022-09-01T12:01:23.076Z,1017.20
2022-09-01T12:06:30.356Z,1017.11
2022-09-01T12:11:37.506Z,1017.12
2022-09-01T12:16:44.770Z,1017.11
2022-09-01T12:21:54.172Z,1017.10
2022-09-01T12:26:59.111Z,1017.06
2022-09-01T12:32:06.459Z,1017.07
2022-09-01T12:37:13.445Z,1017.09
2022-09-01T12:42:20.640Z,1017.05
2022-09-01T12:47:27.825Z,1016.98
2022-09-01T12:52:35.009Z,1017.01
2022-09-01T12:57:42.204Z,1017.00
2022-09-01T13:02:49.492Z,1016.94
2022-09-01T13:07:56.559Z,1016.97
2022-09-01T13:13:03.757Z,1016.96
2022-09-01T13:18:11.657Z,1016.91
2022-09-01T13:23:18.243Z,1016.77
2022-09-01T13:34:09.307Z,1016.77
2022-09-01T13:38:40.096Z,1016.73
2022-09-01T13:43:48.283Z,1016.73
2022-09-01T13:54:01.610Z,1016.55
2022-09-01T13:59:08.805Z,1016.56
2022-09-01T14:04:16.221Z,1016.56
2022-09-01T14:09:23.278Z,1016.50
2022-09-01T14:19:37.763Z,1016.54
2022-09-01T14:24:44.928Z,1016.45
2022-09-01T14:29:54.748Z,1016.46
2022-09-01T14:34:59.307Z,1016.39
2022-09-01T14:40:06.635Z,1016.45
2022-09-01T14:45:13.772Z,1016.46
2022-09-01T14:50:22.926Z,1016.40
2022-09-01T14:55:28.144Z,1016.37
2022-09-01T15:00:35.429Z,1016.33
2022-09-01T15:05:42.631Z,1016.36
2022-09-01T15:10:49.790Z,1016.29
2022-09-01T15:15:57.122Z,1016.28
2022-09-01T15:21:04.162Z,1016.28
2022-09-01T15:26:11.349Z,1016.28
2022-09-01T15:31:18.568Z,1016.22
2022-09-01T15:36:25.737Z,1016.13
2022-09-01T15:41:32.897Z,1016.05
2022-09-01T15:46:40.163Z,1016.07
2022-09-01T15:51:47.293Z,1016.09
2022-09-01T15:56:54.593Z,1016.12
2022-09-01T16:02:01.887Z,1016.09
2022-09-01T16:07:08.977Z,1016.09
2022-09-01T16:12:16.207Z,1016.09
2022-09-01T16:17:23.341Z,1016.09
2022-09-01T16:22:30.532Z,1016.05
2022-09-01T16:27:37.780Z,1016.03
2022-09-01T16:32:44.977Z,1016.02
2022-09-01T16:37:52.140Z,1016.05
2022-09-01T16:42:59.337Z,1016.01
2022-09-01T16:48:06.530Z,1015.97
2022-09-01T16:53:13.731Z,1015.92
2022-09-01T16:58:21.594Z,1015.90
2022-09-01T17:03:34.326Z,1015.92
2022-09-01T17:08:35.386Z,1015.94
2022-09-01T17:13:42.551Z,1015.95
2022-09-01T17:18:49.738Z,1015.95
2022-09-01T17:23:57.069Z,1015.95
2022-09-01T17:29:04.291Z,1016.01
2022-09-01T17:34:11.503Z,1016.01
2022-09-01T17:39:18.683Z,1016.06
2022-09-01T17:44:25.899Z,1016.08
2022-09-01T17:49:33.105Z,1016.14
2022-09-01T17:54:40.307Z,1016.14
2022-09-01T17:59:47.500Z,1016.11
2022-09-01T18:04:54.740Z,1016.15
2022-09-01T18:10:01.880Z,1016.19
2022-09-01T18:15:09.099Z,1016.18
2022-09-01T18:20:16.244Z,1016.19
2022-09-01T18:25:23.489Z,1016.18
2022-09-01T18:30:51.733Z,1016.19
2022-09-01T18:35:38.049Z,1016.22
2022-09-01T18:40:45.393Z,1016.25
2022-09-01T18:45:52.587Z,1016.24
2022-09-01T18:50:59.821Z,1016.26
2022-09-01T18:56:07.368Z,1016.35
2022-09-01T19:01:14.784Z,1016.33
2022-09-01T19:06:22.186Z,1016.37
2022-09-01T19:11:29.933Z,1016.41
2022-09-01T19:16:37.309Z,1016.41
2022-09-01T19:21:45.025Z,1016.43
2022-09-01T19:26:52.415Z,1016.46
2022-09-01T19:31:59.850Z,1016.43
2022-09-01T19:37:07.196Z,1016.43
2022-09-01T19:42:14.771Z,1016.43
2022-09-01T19:47:22.279Z,1016.42
2022-09-01T19:52:29.585Z,1016.40
2022-09-01T19:57:36.790Z,1016.36
2022-09-01T20:02:44.060Z,1016.36
2022-09-01T20:07:51.229Z,1016.37
2022-09-01T20:12:58.451Z,1016.41
2022-09-01T20:18:05.927Z,1016.32
2022-09-01T20:23:13.134Z,1016.30
2022-09-01T20:28:20.435Z,1016.29
2022-09-01T20:33:27.570Z,1016.23
2022-09-01T20:38:34.845Z,1016.21
2022-09-01T20:43:42.040Z,1016.26
2022-09-01T20:48:49.237Z,1016.23
2022-09-01T20:53:56.480Z,1016.26
2022-09-01T20:59:03.687Z,1016.24
2022-09-01T21:04:10.880Z,1016.22
2022-09-01T21:09:18.058Z,1016.21
2022-09-01T21:14:25.291Z,1016.19
2022-09-01T21:19:32.558Z,1016.17
2022-09-01T21:24:39.798Z,1016.27
2022-09-01T21:29:47.031Z,1016.25
2022-09-01T21:34:54.201Z,1016.25
2022-09-01T21:40:01.389Z,1016.29
2022-09-01T21:45:08.569Z,1016.27
2022-09-01T21:50:15.770Z,1016.25
2022-09-01T21:55:23.282Z,1016.23
2022-09-01T22:00:30.212Z,1016.21
2022-09-01T22:05:37.390Z,1016.20
2022-09-01T22:10:44.581Z,1016.15
2022-09-01T22:15:51.822Z,1016.13
2022-09-01T22:20:59.106Z,1016.08
2022-09-01T22:26:06.566Z,1016.12
2022-09-01T22:31:13.821Z,1016.13
2022-09-01T22:36:20.938Z,1016.10
2022-09-01T22:41:28.186Z,1016.11
2022-09-01T22:46:35.387Z,1016.13
2022-09-01T22:51:42.575Z,1016.08
2022-09-01T22:56:49.756Z,1016.10
2022-09-01T23:01:57.015Z,1016.13
2022-09-01T23:07:04.158Z,1016.14
2022-09-01T23:12:11.418Z,1016.14
2022-09-01T23:17:18.592Z,1016.06
2022-09-01T23:22:25.786Z,1016.01
2022-09-01T23:27:32.976Z,1015.97
2022-09-01T23:32:40.151Z,1016.00
2022-09-01T23:37:47.333Z,1015.93
2022-09-01T23:42:54.522Z,1015.91
2022-09-01T23:48:01.703Z,1015.86
2022-09-01T23:53:08.888Z,1015.84
2022-09-01T23:58:16.086Z,1015.83
